sensor_id;sensor_type;location;lat;lon;timestamp;P1;durP1;ratioP1;P2;durP2;ratioP2
76290;SDS011;65100;46.884;17.410;2023-04-24T00:01:12;14.40;;;8.90;;
76290;SDS011;65100;46.884;17.410;2023-04-24T00:03:38;14.85;;;8.90;;
76290;SDS011;65100;46.884;17.410;2023-04-24T00:06:04;14.23;;;8.87;;
76290;SDS011;65100;46.884;17.410;2023-04-24T00:08:33;13.98;;;8.55;;
76290;SDS011;65100;46.884;17.410;2023-04-24T00:10:59;14.38;;;8.85;;
76290;SDS011;65100;46.884;17.410;2023-04-24T00:13:25;15.17;;;8.97;;
76290;SDS011;65100;46.884;17.410;2023-04-24T00:15:51;15.38;;;9.02;;
76290;SDS011;65100;46.884;17.410;2023-04-24T00:18:16;15.93;;;9.10;;
76290;SDS011;65100;46.884;17.410;2023-04-24T00:20:42;14.63;;;9.00;;
76290;SDS011;65100;46.884;17.410;2023-04-24T00:23:08;14.40;;;8.80;;
76290;SDS011;65100;46.884;17.410;2023-04-24T00:25:34;13.88;;;8.70;;
76290;SDS011;65100;46.884;17.410;2023-04-24T00:28:00;14.27;;;8.90;;
76290;SDS011;65100;46.884;17.410;2023-04-24T00:30:25;13.38;;;8.63;;
76290;SDS011;65100;46.884;17.410;2023-04-24T00:32:51;13.97;;;8.30;;
76290;SDS011;65100;46.884;17.410;2023-04-24T00:35:16;13.63;;;8.80;;
76290;SDS011;65100;46.884;17.410;2023-04-24T00:37:42;14.25;;;9.38;;
76290;SDS011;65100;46.884;17.410;2023-04-24T00:40:07;14.63;;;9.50;;
76290;SDS011;65100;46.884;17.410;2023-04-24T00:42:33;15.15;;;9.25;;
76290;SDS011;65100;46.884;17.410;2023-04-24T00:44:59;15.38;;;9.23;;
76290;SDS011;65100;46.884;17.410;2023-04-24T00:47:26;16.20;;;9.23;;
76290;SDS011;65100;46.884;17.410;2023-04-24T00:49:52;16.67;;;9.35;;
76290;SDS011;65100;46.884;17.410;2023-04-24T00:52:17;13.05;;;8.55;;
76290;SDS011;65100;46.884;17.410;2023-04-24T00:54:46;14.93;;;9.13;;
76290;SDS011;65100;46.884;17.410;2023-04-24T00:57:12;16.08;;;9.60;;
76290;SDS011;65100;46.884;17.410;2023-04-24T00:59:40;15.43;;;9.77;;
76290;SDS011;65100;46.884;17.410;2023-04-24T01:02:07;16.50;;;9.70;;
76290;SDS011;65100;46.884;17.410;2023-04-24T01:04:33;14.63;;;9.38;;
76290;SDS011;65100;46.884;17.410;2023-04-24T01:06:59;15.13;;;9.02;;
76290;SDS011;65100;46.884;17.410;2023-04-24T01:09:25;15.63;;;8.77;;
76290;SDS011;65100;46.884;17.410;2023-04-24T01:11:51;13.17;;;8.47;;
76290;SDS011;65100;46.884;17.410;2023-04-24T01:14:17;14.38;;;8.07;;
76290;SDS011;65100;46.884;17.410;2023-04-24T01:16:43;15.20;;;8.13;;
76290;SDS011;65100;46.884;17.410;2023-04-24T01:19:08;13.77;;;8.50;;
76290;SDS011;65100;46.884;17.410;2023-04-24T01:21:36;13.82;;;8.20;;
76290;SDS011;65100;46.884;17.410;2023-04-24T01:24:03;14.02;;;9.05;;
76290;SDS011;65100;46.884;17.410;2023-04-24T01:26:50;14.20;;;8.53;;
76290;SDS011;65100;46.884;17.410;2023-04-24T01:29:15;15.73;;;8.52;;
76290;SDS011;65100;46.884;17.410;2023-04-24T01:31:41;14.40;;;8.80;;
76290;SDS011;65100;46.884;17.410;2023-04-24T01:34:06;14.18;;;8.25;;
76290;SDS011;65100;46.884;17.410;2023-04-24T01:36:33;15.43;;;8.50;;
76290;SDS011;65100;46.884;17.410;2023-04-24T01:39:00;13.25;;;8.32;;
76290;SDS011;65100;46.884;17.410;2023-04-24T01:41:26;13.23;;;8.18;;
76290;SDS011;65100;46.884;17.410;2023-04-24T01:43:51;13.33;;;7.87;;
76290;SDS011;65100;46.884;17.410;2023-04-24T01:46:17;13.60;;;7.57;;
76290;SDS011;65100;46.884;17.410;2023-04-24T01:48:44;12.45;;;8.13;;
76290;SDS011;65100;46.884;17.410;2023-04-24T01:51:10;13.02;;;8.00;;
76290;SDS011;65100;46.884;17.410;2023-04-24T01:53:36;13.43;;;7.60;;
76290;SDS011;65100;46.884;17.410;2023-04-24T01:56:01;13.30;;;7.97;;
76290;SDS011;65100;46.884;17.410;2023-04-24T01:58:27;12.23;;;7.90;;
76290;SDS011;65100;46.884;17.410;2023-04-24T02:00:55;13.48;;;7.63;;
76290;SDS011;65100;46.884;17.410;2023-04-24T02:03:21;12.95;;;7.85;;
76290;SDS011;65100;46.884;17.410;2023-04-24T02:05:47;14.33;;;7.80;;
76290;SDS011;65100;46.884;17.410;2023-04-24T02:08:12;12.33;;;7.63;;
76290;SDS011;65100;46.884;17.410;2023-04-24T02:10:38;12.43;;;7.70;;
76290;SDS011;65100;46.884;17.410;2023-04-24T02:13:03;11.55;;;7.43;;
76290;SDS011;65100;46.884;17.410;2023-04-24T02:15:29;14.30;;;7.67;;
76290;SDS011;65100;46.884;17.410;2023-04-24T02:17:55;13.35;;;7.38;;
76290;SDS011;65100;46.884;17.410;2023-04-24T02:20:20;11.37;;;7.30;;
76290;SDS011;65100;46.884;17.410;2023-04-24T02:22:46;12.80;;;6.72;;
76290;SDS011;65100;46.884;17.410;2023-04-24T02:25:11;15.67;;;7.60;;
76290;SDS011;65100;46.884;17.410;2023-04-24T02:27:37;13.27;;;7.00;;
76290;SDS011;65100;46.884;17.410;2023-04-24T02:30:02;14.05;;;7.63;;
76290;SDS011;65100;46.884;17.410;2023-04-24T02:32:28;12.50;;;7.53;;
76290;SDS011;65100;46.884;17.410;2023-04-24T02:34:54;12.95;;;7.05;;
76290;SDS011;65100;46.884;17.410;2023-04-24T02:37:19;13.77;;;7.50;;
76290;SDS011;65100;46.884;17.410;2023-04-24T02:39:44;12.43;;;7.13;;
76290;SDS011;65100;46.884;17.410;2023-04-24T02:42:10;11.57;;;6.90;;
76290;SDS011;65100;46.884;17.410;2023-04-24T02:44:35;11.30;;;6.97;;
76290;SDS011;65100;46.884;17.410;2023-04-24T02:47:01;14.13;;;6.93;;
76290;SDS011;65100;46.884;17.410;2023-04-24T02:49:26;12.17;;;7.00;;
76290;SDS011;65100;46.884;17.410;2023-04-24T02:51:52;14.00;;;7.30;;
76290;SDS011;65100;46.884;17.410;2023-04-24T02:54:17;12.15;;;7.30;;
76290;SDS011;65100;46.884;17.410;2023-04-24T02:56:43;13.97;;;6.90;;
76290;SDS011;65100;46.884;17.410;2023-04-24T02:59:08;12.07;;;7.00;;
76290;SDS011;65100;46.884;17.410;2023-04-24T03:01:34;12.18;;;7.40;;
76290;SDS011;65100;46.884;17.410;2023-04-24T03:03:59;14.83;;;7.10;;
76290;SDS011;65100;46.884;17.410;2023-04-24T03:06:25;12.07;;;6.60;;
76290;SDS011;65100;46.884;17.410;2023-04-24T03:08:51;11.10;;;6.53;;
76290;SDS011;65100;46.884;17.410;2023-04-24T03:11:17;12.00;;;6.50;;
76290;SDS011;65100;46.884;17.410;2023-04-24T03:13:43;14.50;;;6.43;;
76290;SDS011;65100;46.884;17.410;2023-04-24T03:16:08;12.83;;;6.27;;
76290;SDS011;65100;46.884;17.410;2023-04-24T03:18:34;13.82;;;6.10;;
76290;SDS011;65100;46.884;17.410;2023-04-24T03:21:00;13.70;;;5.93;;
76290;SDS011;65100;46.884;17.410;2023-04-24T03:23:25;12.85;;;6.22;;
76290;SDS011;65100;46.884;17.410;2023-04-24T03:25:51;15.37;;;6.23;;
76290;SDS011;65100;46.884;17.410;2023-04-24T03:28:17;11.43;;;5.65;;
76290;SDS011;65100;46.884;17.410;2023-04-24T03:30:42;12.63;;;6.07;;
76290;SDS011;65100;46.884;17.410;2023-04-24T03:33:08;11.57;;;6.10;;
76290;SDS011;65100;46.884;17.410;2023-04-24T03:35:34;10.63;;;5.60;;
76290;SDS011;65100;46.884;17.410;2023-04-24T03:38:01;10.98;;;5.97;;
76290;SDS011;65100;46.884;17.410;2023-04-24T03:40:26;10.43;;;5.90;;
76290;SDS011;65100;46.884;17.410;2023-04-24T03:42:54;14.25;;;5.80;;
76290;SDS011;65100;46.884;17.410;2023-04-24T03:45:20;10.77;;;5.60;;
76290;SDS011;65100;46.884;17.410;2023-04-24T03:47:45;12.77;;;5.80;;
76290;SDS011;65100;46.884;17.410;2023-04-24T03:50:10;11.03;;;6.17;;
76290;SDS011;65100;46.884;17.410;2023-04-24T03:52:36;14.03;;;6.37;;
76290;SDS011;65100;46.884;17.410;2023-04-24T03:55:01;12.37;;;6.33;;
76290;SDS011;65100;46.884;17.410;2023-04-24T03:57:27;11.17;;;6.60;;
76290;SDS011;65100;46.884;17.410;2023-04-24T03:59:53;12.02;;;6.70;;
76290;SDS011;65100;46.884;17.410;2023-04-24T04:02:18;10.73;;;6.10;;
76290;SDS011;65100;46.884;17.410;2023-04-24T04:04:44;10.90;;;6.40;;
76290;SDS011;65100;46.884;17.410;2023-04-24T04:07:09;12.13;;;6.63;;
76290;SDS011;65100;46.884;17.410;2023-04-24T04:09:36;11.30;;;6.68;;
76290;SDS011;65100;46.884;17.410;2023-04-24T04:12:01;13.00;;;6.70;;
76290;SDS011;65100;46.884;17.410;2023-04-24T04:14:27;17.67;;;6.70;;
76290;SDS011;65100;46.884;17.410;2023-04-24T04:16:52;12.35;;;6.88;;
76290;SDS011;65100;46.884;17.410;2023-04-24T04:19:18;10.80;;;6.20;;
76290;SDS011;65100;46.884;17.410;2023-04-24T04:21:43;15.77;;;6.60;;
76290;SDS011;65100;46.884;17.410;2023-04-24T04:24:10;13.23;;;6.53;;
76290;SDS011;65100;46.884;17.410;2023-04-24T04:26:37;11.43;;;6.57;;
76290;SDS011;65100;46.884;17.410;2023-04-24T04:29:03;11.02;;;6.50;;
76290;SDS011;65100;46.884;17.410;2023-04-24T04:31:28;11.17;;;6.57;;
76290;SDS011;65100;46.884;17.410;2023-04-24T04:33:55;12.55;;;7.05;;
76290;SDS011;65100;46.884;17.410;2023-04-24T04:36:20;12.40;;;7.00;;
76290;SDS011;65100;46.884;17.410;2023-04-24T04:38:46;12.65;;;6.72;;
76290;SDS011;65100;46.884;17.410;2023-04-24T04:41:11;11.93;;;6.30;;
76290;SDS011;65100;46.884;17.410;2023-04-24T04:43:37;11.30;;;6.60;;
76290;SDS011;65100;46.884;17.410;2023-04-24T04:46:04;12.50;;;6.57;;
76290;SDS011;65100;46.884;17.410;2023-04-24T04:48:30;12.57;;;6.80;;
76290;SDS011;65100;46.884;17.410;2023-04-24T04:50:56;12.57;;;7.00;;
76290;SDS011;65100;46.884;17.410;2023-04-24T04:53:22;12.45;;;6.60;;
76290;SDS011;65100;46.884;17.410;2023-04-24T04:55:48;11.63;;;6.90;;
76290;SDS011;65100;46.884;17.410;2023-04-24T04:58:13;11.55;;;6.65;;
76290;SDS011;65100;46.884;17.410;2023-04-24T05:00:39;10.80;;;6.33;;
76290;SDS011;65100;46.884;17.410;2023-04-24T05:03:05;10.97;;;6.60;;
76290;SDS011;65100;46.884;17.410;2023-04-24T05:05:30;11.10;;;6.35;;
76290;SDS011;65100;46.884;17.410;2023-04-24T05:07:55;10.70;;;6.37;;
76290;SDS011;65100;46.884;17.410;2023-04-24T05:10:21;11.10;;;6.53;;
76290;SDS011;65100;46.884;17.410;2023-04-24T05:12:46;13.13;;;6.70;;
76290;SDS011;65100;46.884;17.410;2023-04-24T05:15:12;12.57;;;6.50;;
76290;SDS011;65100;46.884;17.410;2023-04-24T05:17:37;12.57;;;6.47;;
76290;SDS011;65100;46.884;17.410;2023-04-24T05:20:04;12.82;;;6.70;;
76290;SDS011;65100;46.884;17.410;2023-04-24T05:22:31;12.40;;;6.60;;
76290;SDS011;65100;46.884;17.410;2023-04-24T05:24:56;12.10;;;6.83;;
76290;SDS011;65100;46.884;17.410;2023-04-24T05:27:22;11.23;;;6.78;;
76290;SDS011;65100;46.884;17.410;2023-04-24T05:29:48;11.83;;;6.67;;
76290;SDS011;65100;46.884;17.410;2023-04-24T05:32:13;15.40;;;8.17;;
76290;SDS011;65100;46.884;17.410;2023-04-24T05:34:39;13.97;;;7.13;;
76290;SDS011;65100;46.884;17.410;2023-04-24T05:37:04;15.07;;;7.23;;
76290;SDS011;65100;46.884;17.410;2023-04-24T05:39:33;13.68;;;7.00;;
76290;SDS011;65100;46.884;17.410;2023-04-24T05:41:59;13.15;;;6.95;;
76290;SDS011;65100;46.884;17.410;2023-04-24T05:44:26;10.77;;;6.57;;
76290;SDS011;65100;46.884;17.410;2023-04-24T05:46:52;14.77;;;7.10;;
76290;SDS011;65100;46.884;17.410;2023-04-24T05:49:17;11.27;;;6.67;;
76290;SDS011;65100;46.884;17.410;2023-04-24T05:51:42;12.63;;;6.78;;
76290;SDS011;65100;46.884;17.410;2023-04-24T05:54:08;11.63;;;7.13;;
76290;SDS011;65100;46.884;17.410;2023-04-24T05:56:33;12.93;;;6.77;;
76290;SDS011;65100;46.884;17.410;2023-04-24T05:58:59;14.70;;;7.63;;
76290;SDS011;65100;46.884;17.410;2023-04-24T06:01:24;16.70;;;9.13;;
76290;SDS011;65100;46.884;17.410;2023-04-24T06:03:50;13.73;;;7.87;;
76290;SDS011;65100;46.884;17.410;2023-04-24T06:06:16;13.50;;;7.50;;
76290;SDS011;65100;46.884;17.410;2023-04-24T06:08:41;11.47;;;6.90;;
76290;SDS011;65100;46.884;17.410;2023-04-24T06:11:09;13.60;;;7.50;;
76290;SDS011;65100;46.884;17.410;2023-04-24T06:13:35;19.08;;;9.25;;
76290;SDS011;65100;46.884;17.410;2023-04-24T06:16:00;13.03;;;7.03;;
76290;SDS011;65100;46.884;17.410;2023-04-24T06:18:26;11.40;;;6.85;;
76290;SDS011;65100;46.884;17.410;2023-04-24T06:20:52;14.97;;;8.10;;
76290;SDS011;65100;46.884;17.410;2023-04-24T06:23:17;13.20;;;7.27;;
76290;SDS011;65100;46.884;17.410;2023-04-24T06:25:43;12.13;;;6.55;;
76290;SDS011;65100;46.884;17.410;2023-04-24T06:28:08;13.20;;;7.13;;
76290;SDS011;65100;46.884;17.410;2023-04-24T06:30:33;12.97;;;6.60;;
76290;SDS011;65100;46.884;17.410;2023-04-24T06:33:06;11.43;;;6.90;;
76290;SDS011;65100;46.884;17.410;2023-04-24T06:35:31;10.80;;;6.65;;
76290;SDS011;65100;46.884;17.410;2023-04-24T06:37:57;14.37;;;6.57;;
76290;SDS011;65100;46.884;17.410;2023-04-24T06:40:22;11.23;;;6.20;;
76290;SDS011;65100;46.884;17.410;2023-04-24T06:42:48;14.00;;;6.60;;
76290;SDS011;65100;46.884;17.410;2023-04-24T06:45:13;11.37;;;6.50;;
76290;SDS011;65100;46.884;17.410;2023-04-24T06:47:38;11.30;;;6.30;;
76290;SDS011;65100;46.884;17.410;2023-04-24T06:50:04;11.00;;;5.97;;
76290;SDS011;65100;46.884;17.410;2023-04-24T06:52:30;12.38;;;6.57;;
76290;SDS011;65100;46.884;17.410;2023-04-24T06:54:59;10.57;;;6.23;;
76290;SDS011;65100;46.884;17.410;2023-04-24T06:57:27;13.13;;;6.53;;
76290;SDS011;65100;46.884;17.410;2023-04-24T06:59:52;11.07;;;6.23;;
76290;SDS011;65100;46.884;17.410;2023-04-24T07:02:18;10.95;;;6.15;;
76290;SDS011;65100;46.884;17.410;2023-04-24T07:04:43;11.80;;;6.30;;
76290;SDS011;65100;46.884;17.410;2023-04-24T07:07:08;13.60;;;5.87;;
76290;SDS011;65100;46.884;17.410;2023-04-24T07:09:37;10.82;;;6.28;;
76290;SDS011;65100;46.884;17.410;2023-04-24T07:12:06;13.30;;;6.03;;
76290;SDS011;65100;46.884;17.410;2023-04-24T07:14:32;10.60;;;5.88;;
76290;SDS011;65100;46.884;17.410;2023-04-24T07:16:57;11.60;;;5.70;;
76290;SDS011;65100;46.884;17.410;2023-04-24T07:19:23;10.18;;;5.85;;
76290;SDS011;65100;46.884;17.410;2023-04-24T07:21:49;11.93;;;6.10;;
76290;SDS011;65100;46.884;17.410;2023-04-24T07:24:15;11.23;;;6.30;;
76290;SDS011;65100;46.884;17.410;2023-04-24T07:26:40;11.83;;;6.50;;
76290;SDS011;65100;46.884;17.410;2023-04-24T07:29:06;9.87;;;6.00;;
76290;SDS011;65100;46.884;17.410;2023-04-24T07:31:32;11.17;;;5.60;;
76290;SDS011;65100;46.884;17.410;2023-04-24T07:33:58;11.50;;;6.22;;
76290;SDS011;65100;46.884;17.410;2023-04-24T07:36:23;11.57;;;6.23;;
76290;SDS011;65100;46.884;17.410;2023-04-24T07:38:50;10.60;;;6.20;;
76290;SDS011;65100;46.884;17.410;2023-04-24T07:41:16;12.70;;;6.10;;
76290;SDS011;65100;46.884;17.410;2023-04-24T07:43:42;9.77;;;6.00;;
76290;SDS011;65100;46.884;17.410;2023-04-24T07:46:07;11.93;;;6.40;;
76290;SDS011;65100;46.884;17.410;2023-04-24T07:48:33;13.85;;;6.13;;
76290;SDS011;65100;46.884;17.410;2023-04-24T07:50:59;11.40;;;6.00;;
76290;SDS011;65100;46.884;17.410;2023-04-24T07:53:24;13.77;;;6.20;;
76290;SDS011;65100;46.884;17.410;2023-04-24T07:55:50;17.05;;;6.10;;
76290;SDS011;65100;46.884;17.410;2023-04-24T07:58:15;11.40;;;5.90;;
76290;SDS011;65100;46.884;17.410;2023-04-24T08:00:41;12.60;;;5.80;;
76290;SDS011;65100;46.884;17.410;2023-04-24T08:03:06;11.75;;;5.80;;
76290;SDS011;65100;46.884;17.410;2023-04-24T08:05:33;11.30;;;5.93;;
76290;SDS011;65100;46.884;17.410;2023-04-24T08:07:59;12.25;;;7.03;;
76290;SDS011;65100;46.884;17.410;2023-04-24T08:10:24;12.87;;;6.50;;
76290;SDS011;65100;46.884;17.410;2023-04-24T08:12:50;13.18;;;6.55;;
76290;SDS011;65100;46.884;17.410;2023-04-24T08:15:17;10.95;;;5.90;;
76290;SDS011;65100;46.884;17.410;2023-04-24T08:17:42;11.27;;;5.90;;
76290;SDS011;65100;46.884;17.410;2023-04-24T08:20:08;10.75;;;6.10;;
76290;SDS011;65100;46.884;17.410;2023-04-24T08:22:41;12.03;;;6.17;;
76290;SDS011;65100;46.884;17.410;2023-04-24T08:25:08;13.07;;;5.95;;
76290;SDS011;65100;46.884;17.410;2023-04-24T08:27:35;12.45;;;5.90;;
76290;SDS011;65100;46.884;17.410;2023-04-24T08:30:02;12.02;;;5.85;;
76290;SDS011;65100;46.884;17.410;2023-04-24T08:32:28;11.52;;;6.32;;
76290;SDS011;65100;46.884;17.410;2023-04-24T08:34:54;10.20;;;5.70;;
76290;SDS011;65100;46.884;17.410;2023-04-24T08:37:21;11.32;;;6.00;;
76290;SDS011;65100;46.884;17.410;2023-04-24T08:39:47;10.00;;;5.80;;
76290;SDS011;65100;46.884;17.410;2023-04-24T08:42:12;12.63;;;6.10;;
76290;SDS011;65100;46.884;17.410;2023-04-24T08:44:39;10.60;;;5.50;;
76290;SDS011;65100;46.884;17.410;2023-04-24T08:47:05;13.93;;;5.65;;
76290;SDS011;65100;46.884;17.410;2023-04-24T08:49:32;11.30;;;5.47;;
76290;SDS011;65100;46.884;17.410;2023-04-24T08:51:59;12.63;;;5.70;;
76290;SDS011;65100;46.884;17.410;2023-04-24T08:54:25;11.32;;;5.95;;
76290;SDS011;65100;46.884;17.410;2023-04-24T08:56:51;10.55;;;6.00;;
76290;SDS011;65100;46.884;17.410;2023-04-24T08:59:19;10.55;;;5.68;;
76290;SDS011;65100;46.884;17.410;2023-04-24T09:01:47;11.10;;;5.90;;
76290;SDS011;65100;46.884;17.410;2023-04-24T09:10:59;11.10;;;5.70;;
76290;SDS011;65100;46.884;17.410;2023-04-24T09:13:27;10.10;;;5.38;;
76290;SDS011;65100;46.884;17.410;2023-04-24T09:15:53;9.73;;;5.50;;
76290;SDS011;65100;46.884;17.410;2023-04-24T09:18:19;14.85;;;5.80;;
76290;SDS011;65100;46.884;17.410;2023-04-24T09:21:03;11.40;;;5.80;;
76290;SDS011;65100;46.884;17.410;2023-04-24T09:23:32;10.60;;;5.87;;
76290;SDS011;65100;46.884;17.410;2023-04-24T09:29:07;10.63;;;5.43;;
76290;SDS011;65100;46.884;17.410;2023-04-24T09:31:33;9.17;;;5.53;;
76290;SDS011;65100;46.884;17.410;2023-04-24T09:36:32;11.18;;;5.55;;
76290;SDS011;65100;46.884;17.410;2023-04-24T09:38:59;9.47;;;5.13;;
76290;SDS011;65100;46.884;17.410;2023-04-24T09:41:25;11.13;;;5.35;;
76290;SDS011;65100;46.884;17.410;2023-04-24T09:43:55;11.85;;;5.40;;
76290;SDS011;65100;46.884;17.410;2023-04-24T09:46:28;13.95;;;5.28;;
76290;SDS011;65100;46.884;17.410;2023-04-24T09:48:56;11.30;;;5.75;;
76290;SDS011;65100;46.884;17.410;2023-04-24T09:51:34;9.77;;;5.67;;
76290;SDS011;65100;46.884;17.410;2023-04-24T09:54:17;12.32;;;5.75;;
76290;SDS011;65100;46.884;17.410;2023-04-24T09:56:45;11.57;;;5.50;;
76290;SDS011;65100;46.884;17.410;2023-04-24T09:59:13;12.02;;;5.78;;
76290;SDS011;65100;46.884;17.410;2023-04-24T10:01:39;9.98;;;5.47;;
76290;SDS011;65100;46.884;17.410;2023-04-24T10:04:14;11.45;;;5.95;;
76290;SDS011;65100;46.884;17.410;2023-04-24T10:06:42;11.60;;;5.82;;
76290;SDS011;65100;46.884;17.410;2023-04-24T10:09:08;14.37;;;5.67;;
76290;SDS011;65100;46.884;17.410;2023-04-24T10:11:36;11.48;;;5.90;;
76290;SDS011;65100;46.884;17.410;2023-04-24T10:14:04;12.50;;;5.90;;
76290;SDS011;65100;46.884;17.410;2023-04-24T10:16:31;13.27;;;5.80;;
76290;SDS011;65100;46.884;17.410;2023-04-24T10:18:58;11.73;;;5.97;;
76290;SDS011;65100;46.884;17.410;2023-04-24T10:21:25;11.97;;;5.60;;
76290;SDS011;65100;46.884;17.410;2023-04-24T10:23:51;12.25;;;6.13;;
76290;SDS011;65100;46.884;17.410;2023-04-24T10:26:18;11.77;;;6.20;;
76290;SDS011;65100;46.884;17.410;2023-04-24T10:28:45;10.88;;;5.85;;
76290;SDS011;65100;46.884;17.410;2023-04-24T10:31:11;10.57;;;5.80;;
76290;SDS011;65100;46.884;17.410;2023-04-24T10:33:38;12.13;;;5.83;;
76290;SDS011;65100;46.884;17.410;2023-04-24T10:36:11;11.35;;;5.85;;
76290;SDS011;65100;46.884;17.410;2023-04-24T10:38:39;11.48;;;5.97;;
76290;SDS011;65100;46.884;17.410;2023-04-24T10:41:07;10.80;;;5.82;;
76290;SDS011;65100;46.884;17.410;2023-04-24T10:43:41;11.70;;;5.70;;
76290;SDS011;65100;46.884;17.410;2023-04-24T10:46:07;15.23;;;5.73;;
76290;SDS011;65100;46.884;17.410;2023-04-24T10:48:35;11.43;;;5.70;;
76290;SDS011;65100;46.884;17.410;2023-04-24T10:51:01;12.30;;;5.53;;
76290;SDS011;65100;46.884;17.410;2023-04-24T10:53:27;13.05;;;5.90;;
76290;SDS011;65100;46.884;17.410;2023-04-24T10:56:05;10.73;;;5.87;;
76290;SDS011;65100;46.884;17.410;2023-04-24T10:58:36;12.10;;;6.10;;
76290;SDS011;65100;46.884;17.410;2023-04-24T11:01:08;10.60;;;5.70;;
76290;SDS011;65100;46.884;17.410;2023-04-24T11:03:34;10.07;;;6.03;;
76290;SDS011;65100;46.884;17.410;2023-04-24T11:06:07;9.80;;;5.85;;
76290;SDS011;65100;46.884;17.410;2023-04-24T11:19:20;11.10;;;5.80;;
76290;SDS011;65100;46.884;17.410;2023-04-24T11:22:02;11.20;;;6.10;;
76290;SDS011;65100;46.884;17.410;2023-04-24T11:27:15;10.70;;;5.90;;
76290;SDS011;65100;46.884;17.410;2023-04-24T11:29:51;10.25;;;6.10;;
76290;SDS011;65100;46.884;17.410;2023-04-24T11:37:22;13.05;;;7.10;;
76290;SDS011;65100;46.884;17.410;2023-04-24T11:39:56;13.20;;;7.43;;
76290;SDS011;65100;46.884;17.410;2023-04-24T11:42:23;15.02;;;8.15;;
76290;SDS011;65100;46.884;17.410;2023-04-24T11:44:49;13.05;;;7.07;;
76290;SDS011;65100;46.884;17.410;2023-04-24T11:47:16;14.45;;;7.82;;
76290;SDS011;65100;46.884;17.410;2023-04-24T11:49:42;12.43;;;7.33;;
76290;SDS011;65100;46.884;17.410;2023-04-24T11:52:07;12.38;;;6.88;;
76290;SDS011;65100;46.884;17.410;2023-04-24T11:54:33;14.63;;;6.50;;
76290;SDS011;65100;46.884;17.410;2023-04-24T11:56:59;11.57;;;5.70;;
76290;SDS011;65100;46.884;17.410;2023-04-24T11:59:24;12.55;;;6.07;;
76290;SDS011;65100;46.884;17.410;2023-04-24T12:01:50;11.20;;;5.90;;
76290;SDS011;65100;46.884;17.410;2023-04-24T12:04:16;10.20;;;5.80;;
76290;SDS011;65100;46.884;17.410;2023-04-24T12:07:15;10.80;;;5.65;;
76290;SDS011;65100;46.884;17.410;2023-04-24T12:09:44;10.17;;;6.20;;
76290;SDS011;65100;46.884;17.410;2023-04-24T12:12:14;9.95;;;5.80;;
76290;SDS011;65100;46.884;17.410;2023-04-24T12:14:44;10.45;;;5.55;;
76290;SDS011;65100;46.884;17.410;2023-04-24T12:17:14;10.85;;;5.60;;
76290;SDS011;65100;46.884;17.410;2023-04-24T12:19:50;11.38;;;5.40;;
76290;SDS011;65100;46.884;17.410;2023-04-24T12:22:15;11.63;;;5.33;;
76290;SDS011;65100;46.884;17.410;2023-04-24T12:24:57;9.82;;;4.95;;
76290;SDS011;65100;46.884;17.410;2023-04-24T12:27:26;9.25;;;4.80;;
76290;SDS011;65100;46.884;17.410;2023-04-24T12:29:58;9.77;;;4.50;;
76290;SDS011;65100;46.884;17.410;2023-04-24T12:32:24;11.18;;;4.47;;
76290;SDS011;65100;46.884;17.410;2023-04-24T12:34:50;8.93;;;4.50;;
76290;SDS011;65100;46.884;17.410;2023-04-24T12:37:17;10.77;;;4.70;;
76290;SDS011;65100;46.884;17.410;2023-04-24T12:39:58;10.77;;;4.50;;
76290;SDS011;65100;46.884;17.410;2023-04-24T12:42:30;8.90;;;4.30;;
76290;SDS011;65100;46.884;17.410;2023-04-24T12:44:56;9.25;;;4.30;;
76290;SDS011;65100;46.884;17.410;2023-04-24T12:47:32;9.68;;;4.65;;
76290;SDS011;65100;46.884;17.410;2023-04-24T12:49:58;10.20;;;4.82;;
76290;SDS011;65100;46.884;17.410;2023-04-24T12:52:24;12.07;;;5.37;;
76290;SDS011;65100;46.884;17.410;2023-04-24T12:54:54;12.88;;;6.03;;
76290;SDS011;65100;46.884;17.410;2023-04-24T12:57:23;12.15;;;6.72;;
76290;SDS011;65100;46.884;17.410;2023-04-24T12:59:49;14.55;;;6.75;;
76290;SDS011;65100;46.884;17.410;2023-04-24T13:02:15;14.52;;;7.90;;
76290;SDS011;65100;46.884;17.410;2023-04-24T13:04:44;15.33;;;7.83;;
76290;SDS011;65100;46.884;17.410;2023-04-24T13:07:11;14.18;;;8.00;;
76290;SDS011;65100;46.884;17.410;2023-04-24T13:09:37;14.40;;;7.88;;
76290;SDS011;65100;46.884;17.410;2023-04-24T13:12:03;14.87;;;8.10;;
76290;SDS011;65100;46.884;17.410;2023-04-24T13:14:30;15.70;;;7.20;;
76290;SDS011;65100;46.884;17.410;2023-04-24T13:16:56;15.45;;;7.28;;
76290;SDS011;65100;46.884;17.410;2023-04-24T13:19:23;13.35;;;6.97;;
76290;SDS011;65100;46.884;17.410;2023-04-24T13:21:50;11.20;;;5.93;;
76290;SDS011;65100;46.884;17.410;2023-04-24T13:24:16;12.23;;;6.70;;
76290;SDS011;65100;46.884;17.410;2023-04-24T13:26:42;12.17;;;6.50;;
76290;SDS011;65100;46.884;17.410;2023-04-24T13:29:07;11.82;;;6.43;;
76290;SDS011;65100;46.884;17.410;2023-04-24T13:31:33;10.00;;;5.77;;
76290;SDS011;65100;46.884;17.410;2023-04-24T13:33:58;11.07;;;5.77;;
76290;SDS011;65100;46.884;17.410;2023-04-24T13:36:24;11.02;;;5.80;;
76290;SDS011;65100;46.884;17.410;2023-04-24T13:38:50;11.03;;;5.43;;
76290;SDS011;65100;46.884;17.410;2023-04-24T13:41:15;10.52;;;5.03;;
76290;SDS011;65100;46.884;17.410;2023-04-24T13:43:41;10.70;;;5.63;;
76290;SDS011;65100;46.884;17.410;2023-04-24T13:46:07;12.13;;;5.53;;
76290;SDS011;65100;46.884;17.410;2023-04-24T13:48:33;9.25;;;4.88;;
76290;SDS011;65100;46.884;17.410;2023-04-24T13:50:59;9.87;;;5.00;;
76290;SDS011;65100;46.884;17.410;2023-04-24T13:53:24;10.10;;;4.80;;
76290;SDS011;65100;46.884;17.410;2023-04-24T13:55:50;8.20;;;3.90;;
76290;SDS011;65100;46.884;17.410;2023-04-24T13:58:16;5.43;;;2.00;;
76290;SDS011;65100;46.884;17.410;2023-04-24T14:00:41;5.05;;;1.80;;
76290;SDS011;65100;46.884;17.410;2023-04-24T14:03:07;4.43;;;1.60;;
76290;SDS011;65100;46.884;17.410;2023-04-24T14:05:32;3.70;;;1.30;;
76290;SDS011;65100;46.884;17.410;2023-04-24T14:07:58;4.07;;;1.30;;
76290;SDS011;65100;46.884;17.410;2023-04-24T14:10:23;2.83;;;1.30;;
76290;SDS011;65100;46.884;17.410;2023-04-24T14:12:49;4.10;;;1.88;;
76290;SDS011;65100;46.884;17.410;2023-04-24T14:15:15;3.53;;;1.40;;
76290;SDS011;65100;46.884;17.410;2023-04-24T14:17:41;3.10;;;1.30;;
76290;SDS011;65100;46.884;17.410;2023-04-24T14:20:07;3.20;;;1.33;;
76290;SDS011;65100;46.884;17.410;2023-04-24T14:22:33;3.78;;;1.50;;
76290;SDS011;65100;46.884;17.410;2023-04-24T14:24:59;5.60;;;2.35;;
76290;SDS011;65100;46.884;17.410;2023-04-24T14:27:24;4.27;;;1.60;;
76290;SDS011;65100;46.884;17.410;2023-04-24T14:29:51;3.95;;;1.60;;
76290;SDS011;65100;46.884;17.410;2023-04-24T14:32:17;3.97;;;1.50;;
76290;SDS011;65100;46.884;17.410;2023-04-24T14:34:43;3.83;;;1.50;;
76290;SDS011;65100;46.884;17.410;2023-04-24T14:37:08;3.67;;;1.70;;
76290;SDS011;65100;46.884;17.410;2023-04-24T14:39:34;4.35;;;1.60;;
76290;SDS011;65100;46.884;17.410;2023-04-24T14:41:59;4.10;;;1.50;;
76290;SDS011;65100;46.884;17.410;2023-04-24T14:44:26;4.30;;;1.73;;
76290;SDS011;65100;46.884;17.410;2023-04-24T14:46:51;4.57;;;1.83;;
76290;SDS011;65100;46.884;17.410;2023-04-24T14:49:16;3.97;;;1.60;;
76290;SDS011;65100;46.884;17.410;2023-04-24T14:51:42;3.47;;;1.50;;